Map

Track Data

SID SEASON NUMBER BASIN SUBBASIN NAME ISO_TIME NATURE LAT LON WMO_WIND WMO_PRES WMO_AGENCY TRACK_TYPE DIST2LAND LANDFALL IFLAG USA_AGENCY USA_ATCF_ID USA_LAT USA_LON USA_RECORD USA_STATUS USA_WIND USA_PRES USA_SSHS USA_R34_NE USA_R34_SE USA_R34_SW USA_R34_NW USA_R50_NE USA_R50_SE USA_R50_SW USA_R50_NW USA_R64_NE USA_R64_SE USA_R64_SW USA_R64_NW USA_POCI USA_ROCI USA_RMW USA_EYE TOKYO_LAT TOKYO_LON TOKYO_GRADE TOKYO_WIND TOKYO_PRES TOKYO_R50_DIR TOKYO_R50_LONG TOKYO_R50_SHORT TOKYO_R30_DIR TOKYO_R30_LONG TOKYO_R30_SHORT TOKYO_LAND CMA_LAT CMA_LON CMA_CAT CMA_WIND CMA_PRES HKO_LAT HKO_LON HKO_CAT HKO_WIND HKO_PRES NEWDELHI_LAT NEWDELHI_LON NEWDELHI_GRADE NEWDELHI_WIND NEWDELHI_PRES NEWDELHI_CI NEWDELHI_DP NEWDELHI_POCI REUNION_LAT REUNION_LON REUNION_TYPE REUNION_WIND REUNION_PRES REUNION_TNUM REUNION_CI REUNION_RMW REUNION_R34_NE REUNION_R34_SE REUNION_R34_SW REUNION_R34_NW REUNION_R50_NE REUNION_R50_SE REUNION_R50_SW REUNION_R50_NW REUNION_R64_NE REUNION_R64_SE REUNION_R64_SW REUNION_R64_NW BOM_LAT BOM_LON BOM_TYPE BOM_WIND BOM_PRES BOM_TNUM BOM_CI BOM_RMW BOM_R34_NE BOM_R34_SE BOM_R34_SW BOM_R34_NW BOM_R50_NE BOM_R50_SE BOM_R50_SW BOM_R50_NW BOM_R64_NE BOM_R64_SE BOM_R64_SW BOM_R64_NW BOM_ROCI BOM_POCI BOM_EYE BOM_POS_METHOD BOM_PRES_METHOD NADI_LAT NADI_LON NADI_CAT NADI_WIND NADI_PRES WELLINGTON_LAT WELLINGTON_LON WELLINGTON_WIND WELLINGTON_PRES DS824_LAT DS824_LON DS824_STAGE DS824_WIND DS824_PRES TD9636_LAT TD9636_LON TD9636_STAGE TD9636_WIND TD9636_PRES TD9635_LAT TD9635_LON TD9635_WIND TD9635_PRES TD9635_ROCI NEUMANN_LAT NEUMANN_LON NEUMANN_CLASS NEUMANN_WIND NEUMANN_PRES MLC_LAT MLC_LON MLC_CLASS MLC_WIND MLC_PRES USA_GUST BOM_GUST BOM_GUST_PER REUNION_GUST REUNION_GUST_PER USA_SEAHGT USA_SEARAD_NE USA_SEARAD_SE USA_SEARAD_SW USA_SEARAD_NW STORM_SPEED STORM_DIR
1960199N17129 1960 37 WP MM POLLY 1960-07-17 00:00:00 TS 16.5000 129.000 1008 tokyo main 573 563 _OO___________ -1 16.5000 128.800 2 1008 0 0 0 16.5000 129.200 0 19 1008 12 324
1960199N17129 1960 37 WP MM POLLY 1960-07-17 03:00:00 TS 16.9688 128.640 main 568 565 _PP___________ -1 17.1875 128.416 2 1004 0 0 16.7500 128.865 0 24 1006 11 320
1960199N17129 1960 37 WP MM POLLY 1960-07-17 06:00:00 TS 17.3500 128.250 1000 tokyo main 572 549 _OO___________ -1 17.7000 128.000 2 1000 0 0 0 17.0000 128.500 1 29 1005 10 308
1960199N17129 1960 37 WP MM POLLY 1960-07-17 09:00:00 TS 17.5876 127.824 main 550 536 _PP___________ -1 17.9251 127.555 2 1000 0 0 17.2500 128.092 1 29 1003 8 298
1960199N17129 1960 37 WP MM POLLY 1960-07-17 12:00:00 TS 17.7333 127.500 1000 tokyo main 536 527 OOO______OOO__ jtwc_wp WP061960 17.7000 127.600 30 -1 18.0000 127.200 2 1000 0 0 0 17.5000 127.700 1 29 1002 17.7000 127.600 TC 30 17.7000 127.600 1 30 17.7000 127.600 30 1003 120 6 306
1960199N17129 1960 37 WP MM POLLY 1960-07-17 15:00:00 TS 17.9157 127.353 main 529 519 PPP______PPP__ WP061960 17.9125 127.513 35 0 18.0999 127.047 2 999 0 0 17.7575 127.355 1 29 1000 17.9125 127.513 TC 35 17.8735 127.480 1 33 17.9125 127.513 35 1001 120 4 327
1960199N17129 1960 37 WP MM POLLY 1960-07-17 18:00:00 TS 18.0921 127.254 998 tokyo main 523 513 OOO______OPO__ jtwc_wp WP061960 18.1000 127.400 40 0 18.2000 127.000 2 998 0 0 0 18.0000 127.100 1 29 998 18.1000 127.400 TC 40 18.0475 127.358 1 37 18.1000 127.400 40 999 120 4 330
1960199N17129 1960 37 WP MM POLLY 1960-07-17 21:00:00 TS 18.2550 127.149 main 506 495 PPP______PPP__ WP061960 18.2500 127.250 42 0 18.3425 126.942 2 997 0 0 18.2149 126.970 1 33 997 18.2500 127.250 TC 42 18.2228 127.232 1 41 18.2500 127.250 42 997 150 4 327
1960199N17129 1960 37 WP MM POLLY 1960-07-18 00:00:00 TS 18.4167 127.033 996 tokyo main 495 485 OOO______OOO__ jtwc_wp WP061960 18.4000 127.100 45 0 18.5000 126.900 2 996 0 0 0 18.4000 126.900 2 38 996 18.4000 127.100 TC 45 18.4000 127.100 2 45 18.4000 127.100 45 995 180 4 330
1960199N17129 1960 37 WP MM POLLY 1960-07-18 03:00:00 TS 18.5977 126.935 main 485 476 PPP______PPP__ WP061960 18.6000 127.000 50 0 18.6500 126.850 2 996 0 0 18.5575 126.800 2 53 993 18.6000 127.000 TC 50 18.5791 126.963 2 50 18.6000 127.000 50 993 180 4 332
1960199N17129 1960 37 WP MM POLLY 1960-07-18 06:00:00 TS 18.7763 126.838 996 tokyo main 476 466 OOO______OPO__ jtwc_wp WP061960 18.8000 126.900 55 0 18.8000 126.800 2 996 0 0 0 18.7000 126.700 4 68 990 18.8000 126.900 TC 55 18.7575 126.828 2 55 18.8000 126.900 55 991 180 4 327
1960199N17129 1960 37 WP MM POLLY 1960-07-18 09:00:00 TS 18.9304 126.712 main 466 457 PPP______PPP__ WP061960 18.9500 126.743 60 0 18.9500 126.750 2 996 0 0 18.8500 126.593 4 72 987 18.9500 126.743 TC 60 18.9322 126.703 2 60 18.9500 126.743 60 988 210 4 324
1960199N17129 1960 37 WP MM POLLY 1960-07-18 12:00:00 TS 19.0833 126.600 996 tokyo main 459 451 OOO______OOO__ jtwc_wp WP061960 19.1000 126.600 65 1 19.1000 126.700 9 996 0 0 0 19.0000 126.500 4 77 985 19.1000 126.600 TC 65 19.1000 126.600 3 65 19.1000 126.600 65 986 240 4 333
1960199N17129 1960 37 WP MM POLLY 1960-07-18 15:00:00 TS 19.2620 126.535 main 453 453 PPP______PPP__ WP061960 19.3075 126.535 70 1 19.2500 126.650 9 993 0 0 19.1425 126.435 4 77 985 19.3075 126.535 TC 70 19.2571 126.520 3 68 19.3075 126.535 70 984 210 4 344
1960199N17129 1960 37 WP MM POLLY 1960-07-18 18:00:00 TS 19.4346 126.494 990 tokyo main 455 455 OOO______OPO__ jtwc_wp WP061960 19.5000 126.500 75 1 19.4000 126.600 9 990 0 0 0 19.3000 126.400 4 77 985 19.5000 126.500 TC 75 19.4074 126.462 3 71 19.5000 126.500 75 982 180 3 346
1960199N17129 1960 37 WP MM POLLY 1960-07-18 21:00:00 TS 19.5711 126.453 main 461 451 PPP______PPP__ WP061960 19.6075 126.450 77 1 19.5500 126.543 9 990 0 0 19.5000 126.400 4 77 982 19.6075 126.450 TC 77 19.5540 126.423 3 74 19.6075 126.450 76 980 180 3 346
1960199N17129 1960 37 WP MM POLLY 1960-07-19 00:00:00 TS 19.7000 126.417 990 tokyo main 454 454 OOO______OOO__ jtwc_wp WP061960 19.7000 126.400 80 1 19.7000 126.500 9 990 0 0 0 19.7000 126.400 4 77 980 19.7000 126.400 TC 80 19.7000 126.400 4 78 19.7000 126.400 78 978 180 3 344
1960199N17129 1960 37 WP MM POLLY 1960-07-19 03:00:00 TS 19.8482 126.371 main 458 456 PPP______PPP__ WP061960 19.8425 126.335 80 1 19.8500 126.500 9 980 0 0 19.8575 126.350 4 82 977 19.8425 126.335 TC 80 19.8540 126.373 4 80 19.8425 126.335 80 975 180 3 347
1960199N17129 1960 37 WP MM POLLY 1960-07-19 06:00:00 TS 20.0012 126.344 970 tokyo main 456 456 OOO______OPO__ jtwc_wp WP061960 20.0000 126.300 80 1 20.0000 126.500 9 970 0 0 0 20.0000 126.300 5 87 975 20.0000 126.300 TC 80 20.0075 126.363 4 83 20.0000 126.300 82 973 180 3 356
1960199N17129 1960 37 WP MM POLLY 1960-07-19 09:00:00 TS 20.1512 126.348 main 465 465 PPP______PPP__ WP061960 20.1500 126.335 85 2 20.1500 126.435 9 972 0 0 20.1500 126.278 5 87 975 20.1500 126.335 TC 85 20.1572 126.370 4 85 20.1500 126.335 85 971 180 3 7
1960199N17129 1960 37 WP MM POLLY 1960-07-19 12:00:00 TS 20.3000 126.383 975 tokyo main 479 479 OOO______OOO__ jtwc_wp WP061960 20.3000 126.400 90 2 20.3000 126.400 9 975 0 0 0 20.3000 126.300 5 87 975 20.3000 126.400 TC 90 20.3000 126.400 4 88 20.3000 126.400 88 969 180 3 14
1960199N17129 1960 37 WP MM POLLY 1960-07-19 15:00:00 TS 20.4533 126.437 main 489 489 PPP______PPP__ WP061960 20.4575 126.443 90 2 20.4575 126.477 9 977 0 0 20.4575 126.377 5 87 975 20.4575 126.443 TC 90 20.4322 126.441 4 89 20.4575 126.443 90 967 180 3 23
1960199N17129 1960 37 WP MM POLLY 1960-07-19 18:00:00 TS 20.5929 126.518 980 tokyo main 504 504 OOO______OPO__ jtwc_wp WP061960 20.6000 126.500 90 2 20.6000 126.600 9 980 0 0 0 20.6000 126.500 5 87 975 20.6000 126.500 TC 90 20.5574 126.505 4 91 20.6000 126.500 92 965 180 3 33
1960199N17129 1960 37 WP MM POLLY 1960-07-19 21:00:00 TS 20.7027 126.612 main 518 518 PPP______PPP__ WP061960 20.7075 126.578 92 2 20.7075 126.700 9 980 0 0 20.7075 126.650 5 87 975 20.7075 126.578 TC 92 20.6790 126.591 4 93 20.7075 126.578 93 962 210 3 44
1960199N17129 1960 37 WP MM POLLY 1960-07-20 00:00:00 TS 20.8000 126.733 980 tokyo main 533 533 OOO______OOO__ jtwc_wp WP061960 20.8000 126.700 95 2 20.8000 126.800 9 980 0 0 0 20.8000 126.800 5 87 975 20.8000 126.700 TC 95 20.8000 126.700 4 95 20.8000 126.700 95 960 240 3 53
1960199N17129 1960 37 WP MM POLLY 1960-07-20 03:00:00 TS 20.8959 126.885 main 556 556 PPP______PPP__ WP061960 20.8926 126.900 97 3 20.8925 126.885 9 975 0 0 20.8924 126.893 5 92 970 20.8926 126.900 TC 97 20.9129 126.833 4 98 20.8926 126.900 97 958 240 4 55
1960199N17129 1960 37 WP MM POLLY 1960-07-20 06:00:00 TS 21.0046 127.048 970 tokyo main 571 571 OOO______OPO__ jtwc_wp WP061960 21.0000 127.100 100 3 21.0000 127.000 9 970 0 0 0 21.0000 127.000 5 97 965 21.0000 127.100 TC 100 21.0276 126.985 4 101 21.0000 127.100 100 956 240 4 50
1960199N17129 1960 37 WP MM POLLY 1960-07-20 09:00:00 TS 21.1406 127.193 main 595 595 PPP______PPP__ WP061960 21.1349 127.208 105 3 21.1426 127.200 9 962 0 0 21.1425 127.192 5 101 960 21.1349 127.208 TC 105 21.1535 127.145 4 104 21.1349 127.208 104 955 240 4 42
1960199N17129 1960 37 WP MM POLLY 1960-07-20 12:00:00 TS 21.3000 127.333 955 tokyo main 615 615 OOO______OOO__ jtwc_wp WP061960 21.3000 127.300 110 3 21.3000 127.400 9 955 0 0 0 21.3000 127.400 6 106 955 21.3000 127.300 TC 110 21.3000 127.300 4 108 21.3000 127.300 108 955 240 4 39
1960199N17129 1960 37 WP MM POLLY 1960-07-20 15:00:00 TS 21.4691 127.482 main 644 644 PPP______PPP__ WP061960 21.4925 127.450 110 3 21.4350 127.515 9 955 0 0 21.4275 127.573 6 106 955 21.4925 127.450 TC 110 21.4744 127.456 4 109 21.4925 127.450 109 954 240 4 36
1960199N17129 1960 37 WP MM POLLY 1960-07-20 18:00:00 TS 21.6617 127.617 955 tokyo main 656 656 OOO______OPO__ jtwc_wp WP061960 21.7000 127.600 110 3 21.6000 127.600 9 955 0 0 0 21.6000 127.700 6 106 955 21.7000 127.600 TC 110 21.6700 127.602 4 111 21.7000 127.600 110 954 240 5 29
1960199N17129 1960 37 WP MM POLLY 1960-07-20 21:00:00 TS 21.8847 127.729 main 659 659 PPP______PPP__ WP061960 21.9000 127.723 112 3 21.8350 127.715 9 960 0 0 21.8925 127.773 6 116 957 21.9000 127.723 TC 112 21.8807 127.722 4 113 21.9000 127.723 112 953 240 5 20
1960199N17129 1960 37 WP MM POLLY 1960-07-21 00:00:00 TS 22.1167 127.800 965 tokyo main 659 650 OOO______OOO__ jtwc_wp WP061960 22.1000 127.800 115 4 22.1000 127.800 9 965 0 0 0 22.2000 127.800 6 126 960 22.1000 127.800 TC 115 22.1000 127.800 4 115 22.1000 127.800 115 953 240 5 11
1960199N17129 1960 37 WP MM POLLY 1960-07-21 03:00:00 TS 22.3338 127.822 main 650 641 PPP______PPP__ WP061960 22.2925 127.823 115 4 22.3650 127.823 9 957 0 0 22.4225 127.815 6 131 955 22.2925 127.823 TC 115 22.3381 127.827 4 115 22.2925 127.823 115 952 240 4 0
1960199N17129 1960 37 WP MM POLLY 1960-07-21 06:00:00 TS 22.5467 127.802 950 tokyo main 641 629 OOO______OPO__ jtwc_wp WP061960 22.5000 127.800 115 4 22.6000 127.800 9 950 0 0 0 22.6000 127.800 6 136 950 22.5000 127.800 TC 115 22.5799 127.810 4 115 22.5000 127.800 115 952 240 4 353
1960199N17129 1960 37 WP MM POLLY 1960-07-21 09:00:00 TS 22.7707 127.759 main 629 613 PPP______PPP__ WP061960 22.7650 127.758 115 4 22.7650 127.758 9 950 0 0 22.7575 127.758 6 136 951 22.7650 127.758 TC 115 22.8068 127.764 4 115 22.7650 127.758 115 952 270 4 347
1960199N17129 1960 37 WP MM POLLY 1960-07-21 12:00:00 TS 22.9667 127.700 950 tokyo main 613 610 OOO______OOO__ jtwc_wp WP061960 23.0000 127.700 115 4 22.9000 127.700 9 950 0 0 0 22.9000 127.700 6 136 952 23.0000 127.700 TC 115 23.0000 127.700 4 115 23.0000 127.700 115 952 300 3 343
1960199N17129 1960 37 WP MM POLLY 1960-07-21 15:00:00 TS 23.1031 127.651 main 610 597 PPP______PPP__ WP061960 23.1225 127.657 115 4 23.0575 127.650 9 952 0 0 23.0575 127.650 6 131 953 23.1225 127.657 TC 115 23.1360 127.635 4 115 23.1225 127.657 115 952 300 3 337
1960199N17129 1960 37 WP MM POLLY 1960-07-21 18:00:00 TS 23.2063 127.593 955 tokyo main 597 584 OOO______OPO__ jtwc_wp WP061960 23.2000 127.600 115 4 23.2000 127.600 9 955 0 0 0 23.2000 127.600 6 126 955 23.2000 127.600 TC 115 23.2375 127.557 4 115 23.2000 127.600 115 953 300 2 329
1960199N17129 1960 37 WP MM POLLY 1960-07-21 21:00:00 TS 23.3059 127.513 main 584 571 PPP______PPP__ WP061960 23.3000 127.500 115 4 23.3075 127.550 9 952 0 0 23.3075 127.550 6 126 955 23.3000 127.500 TC 115 23.3203 127.476 4 115 23.3000 127.500 115 952 270 2 323
1960199N17129 1960 37 WP MM POLLY 1960-07-22 00:00:00 TS 23.4000 127.433 950 tokyo main 571 569 OOO______OOO__ jtwc_wp WP061960 23.4000 127.400 115 4 23.4000 127.500 9 950 0 0 0 23.4000 127.500 6 126 955 23.4000 127.400 TC 115 23.4000 127.400 4 115 23.4000 127.400 115 952 240 2 329
1960199N17129 1960 37 WP MM POLLY 1960-07-22 03:00:00 TS 23.5007 127.381 main 569 557 PPP______PPP__ WP061960 23.5000 127.342 112 3 23.4925 127.465 9 950 0 0 23.5075 127.465 6 111 960 23.5000 127.342 TC 112 23.5041 127.331 4 113 23.5000 127.342 113 951 240 2 334
1960199N17129 1960 37 WP MM POLLY 1960-07-22 06:00:00 TS 23.6012 127.328 950 tokyo main 557 545 OOO______OPO__ jtwc_wp WP061960 23.6000 127.300 110 3 23.6000 127.400 9 950 0 0 0 23.6000 127.400 5 97 965 23.6000 127.300 TC 110 23.6075 127.270 4 112 23.6000 127.300 112 951 240 2 327
1960199N17129 1960 37 WP MM POLLY 1960-07-22 09:00:00 TS 23.7087 127.240 main 545 543 PPP______PPP__ WP061960 23.7075 127.235 110 3 23.7500 127.258 9 962 0 0 23.6726 127.250 5 92 967 23.7075 127.235 TC 110 23.7072 127.224 4 111 23.7075 127.235 111 950 240 2 324
1960199N17129 1960 37 WP MM POLLY 1960-07-22 12:00:00 TS 23.8000 127.167 975 tokyo main 543 540 OOO______OOO__ jtwc_wp WP061960 23.8000 127.200 110 3 23.9000 127.100 9 975 0 0 0 23.7000 127.100 5 87 970 23.8000 127.200 TC 110 23.8000 127.200 4 110 23.8000 127.200 110 950 240 2 335
1960199N17129 1960 37 WP MM POLLY 1960-07-22 15:00:00 TS 23.8611 127.160 main 540 540 PPP______PPP__ WP061960 23.8500 127.242 110 3 24.0450 126.985 9 970 0 0 23.6650 127.035 5 82 966 23.8500 127.242 TC 110 23.9066 127.216 4 108 23.8500 127.242 110 950 240 1 0
1960199N17129 1960 37 WP MM POLLY 1960-07-22 18:00:00 TS 23.9004 127.175 965 tokyo main 540 540 OOO______OPO__ jtwc_wp WP061960 23.9000 127.300 110 3 24.1000 126.900 9 965 0 0 0 23.6000 127.000 4 77 963 23.9000 127.300 TC 110 24.0025 127.250 4 107 23.9000 127.300 110 951 240 1 0
1960199N17129 1960 37 WP MM POLLY 1960-07-22 21:00:00 TS 23.9412 127.168 main 540 537 PPP______PPP__ WP061960 24.0075 127.315 107 3 23.9950 126.835 9 965 0 0 23.5575 126.943 4 77 963 24.0075 127.315 TC 107 24.0722 127.284 4 106 24.0075 127.315 107 953 270 1 332
1960199N17129 1960 37 WP MM POLLY 1960-07-23 00:00:00 TS 23.9500 127.150 965 tokyo main 537 530 OOO______OOO__ jtwc_wp WP061960 24.1000 127.300 105 3 23.8000 126.800 9 965 0 0 0 23.5000 126.900 4 77 964 24.1000 127.300 TC 105 24.1000 127.300 4 105 24.1000 127.300 105 956 300 1 239
1960199N17129 1960 37 WP MM POLLY 1960-07-23 03:00:00 TS 23.9121 127.117 main 530 530 PPP______PPP__ WP061960 24.1375 127.258 102 3 23.5925 126.777 9 965 0 0 23.4075 126.893 4 77 964 24.1375 127.258 TC 102 24.0600 127.259 4 103 24.1375 127.258 102 959 300 1 204
1960199N17129 1960 37 WP MM POLLY 1960-07-23 06:00:00 TS 23.8300 127.083 965 tokyo main 533 533 OOO______OPO__ jtwc_wp WP061960 24.1000 127.200 100 3 23.4000 126.800 9 965 0 0 0 23.3000 126.900 4 77 964 24.1000 127.200 TC 100 23.9800 127.200 4 101 24.1000 127.200 100 963 300 2 195
1960199N17129 1960 37 WP MM POLLY 1960-07-23 09:00:00 TS 23.7058 127.053 main 534 525 PPP______PPP__ WP061960 23.9725 127.142 100 3 23.2625 126.878 9 967 0 0 23.1700 126.870 4 77 966 23.9725 127.142 TC 100 23.8850 127.141 4 99 23.9725 127.142 99 965 300 2 190
1960199N17129 1960 37 WP MM POLLY 1960-07-23 12:00:00 TS 23.5833 127.050 970 tokyo main 537 537 OOO______OOO__ jtwc_wp WP061960 23.8000 127.100 100 3 23.2000 127.000 9 970 0 0 0 23.1000 126.900 4 77 968 23.8000 127.100 TC 100 23.8000 127.100 4 98 23.8000 127.100 98 967 300 2 165
1960199N17129 1960 37 WP MM POLLY 1960-07-23 15:00:00 TS 23.4865 127.107 main 539 539 PPP______PPP__ WP061960 23.6125 127.085 97 3 23.1975 127.165 9 972 0 0 23.1476 127.107 4 72 971 23.6125 127.085 TC 97 23.7362 127.116 4 96 23.6125 127.085 96 968 300 2 137
1960199N17129 1960 37 WP MM POLLY 1960-07-23 18:00:00 TS 23.4650 127.175 975 tokyo main 549 547 OOO______OPO__ jtwc_wp WP061960 23.5000 127.100 95 2 23.3000 127.300 9 975 0 0 0 23.3000 127.300 4 68 974 23.5000 127.100 TC 95 23.6900 127.150 4 95 23.5000 127.100 95 969 300 1 49
1960199N17129 1960 37 WP MM POLLY 1960-07-23 21:00:00 TS 23.5694 127.214 main 547 545 PPP______PPP__ WP061960 23.5550 127.157 92 2 23.5350 127.338 9 977 0 0 23.5425 127.288 4 63 975 23.5550 127.157 TC 92 23.6737 127.184 4 93 23.5550 127.157 93 970 330 3 8
1960199N17129 1960 37 WP MM POLLY 1960-07-24 00:00:00 TS 23.7333 127.217 980 tokyo main 545 540 OOO______OOO__ jtwc_wp WP061960 23.7000 127.200 90 2 23.8000 127.300 9 980 0 0 0 23.8000 127.200 3 58 977 23.7000 127.200 TC 90 23.7000 127.200 4 92 23.7000 127.200 92 972 360 3 352
1960199N17129 1960 37 WP MM POLLY 1960-07-24 03:00:00 TS 23.8827 127.175 main 540 527 PPP______PPP__ WP061960 23.8500 127.165 90 2 23.9800 127.215 9 980 0 0 23.9800 127.157 3 58 977 23.8500 127.165 TC 90 23.7859 127.184 4 89 23.8500 127.165 90 974 360 3 341
1960199N17129 1960 37 WP MM POLLY 1960-07-24 06:00:00 TS 24.0187 127.108 980 tokyo main 527 525 OOO______OPO__ jtwc_wp WP061960 24.0000 127.100 90 2 24.1000 127.100 9 980 0 0 0 24.1000 127.100 3 58 978 24.0000 127.100 TC 90 23.9124 127.145 4 87 24.0000 127.100 88 977 360 3 333
1960199N17129 1960 37 WP MM POLLY 1960-07-24 09:00:00 TS 24.1159 127.048 main 515 513 PPP______PPP__ WP061960 24.1075 127.065 85 2 24.1575 127.000 9 980 0 0 24.1575 127.007 3 58 979 24.1075 127.065 TC 85 24.0578 127.084 4 84 24.1075 127.065 85 978 330 2 324
1960199N17129 1960 37 WP MM POLLY 1960-07-24 12:00:00 TS 24.2000 126.967 980 tokyo main 513 500 OOO______OOO__ jtwc_wp WP061960 24.2000 127.000 80 1 24.2000 126.900 9 980 0 0 0 24.2000 126.900 3 58 980 24.2000 127.000 TC 80 24.2000 127.000 4 82 24.2000 127.000 82 980 300 3 314
1960199N17129 1960 37 WP MM POLLY 1960-07-24 15:00:00 TS 24.2936 126.843 main 491 479 PPP______PPP__ WP061960 24.3000 126.858 80 1 24.2775 126.792 9 980 0 0 24.2850 126.793 3 58 981 24.3000 126.858 TC 80 24.2991 126.901 4 80 24.3000 126.858 80 981 300 3 311
1960199N17129 1960 37 WP MM POLLY 1960-07-24 18:00:00 TS 24.3988 126.713 980 tokyo main 479 467 OOO______OPO__ jtwc_wp WP061960 24.4000 126.700 80 1 24.4000 126.700 9 980 0 0 0 24.4000 126.700 3 58 983 24.4000 126.700 TC 80 24.3925 126.780 4 78 24.4000 126.700 78 983 300 3 319
1960199N17129 1960 37 WP MM POLLY 1960-07-24 21:00:00 TS 24.5182 126.626 main 467 456 PPP______PPP__ WP061960 24.4925 126.600 77 1 24.6000 126.657 9 980 0 0 24.5425 126.657 3 63 981 24.4925 126.600 TC 77 24.4897 126.644 4 76 24.4925 126.600 76 984 330 3 327
1960199N17129 1960 37 WP MM POLLY 1960-07-25 00:00:00 TS 24.6500 126.533 980 tokyo main 454 444 OOO______OOO__ jtwc_wp WP061960 24.6000 126.500 75 1 24.8000 126.600 9 980 0 0 0 24.7000 126.600 4 68 980 24.6000 126.500 TC 75 24.6000 126.500 4 75 24.6000 126.500 75 985 360 3 322
1960199N17129 1960 37 WP MM POLLY 1960-07-25 03:00:00 TS 24.7892 126.393 main 444 423 PPP______PPP__ WP061960 24.7425 126.358 72 1 24.9225 126.473 9 980 0 0 24.8575 126.465 4 68 980 24.7425 126.358 TC 72 24.7276 126.345 4 73 24.7425 126.358 72 985 360 4 316
1960199N17129 1960 37 WP MM POLLY 1960-07-25 06:00:00 TS 24.9284 126.231 980 tokyo main 423 412 OOO______OPO__ jtwc_wp WP061960 24.9000 126.200 70 1 25.0000 126.300 9 980 0 0 0 25.0000 126.300 4 68 980 24.9000 126.200 TC 70 24.8701 126.185 4 72 24.9000 126.200 70 985 360 4 311
1960199N17129 1960 37 WP MM POLLY 1960-07-25 09:00:00 TS 25.0471 126.062 main 412 392 PPP______PPP__ WP061960 25.0425 126.035 70 1 25.0275 126.092 9 980 0 0 25.1000 126.142 4 72 979 25.0425 126.035 TC 70 25.0276 126.033 4 71 25.0425 126.035 70 986 330 4 312
1960199N17129 1960 37 WP MM POLLY 1960-07-25 12:00:00 TS 25.1833 125.917 980 tokyo main 393 383 OOO______OOO__ jtwc_wp WP061960 25.2000 125.900 70 1 25.1000 125.900 9 980 0 0 0 25.2000 126.000 4 77 979 25.2000 125.900 TC 70 25.2000 125.900 4 70 25.2000 125.900 70 987 300 4 327
1960199N17129 1960 37 WP MM POLLY 1960-07-25 15:00:00 TS 25.3669 125.834 main 384 384 PPP______PPP__ WP061960 25.3925 125.842 70 1 25.3275 125.785 9 980 0 0 25.3275 125.892 4 77 979 25.3925 125.842 TC 70 25.3693 125.799 4 70 25.3925 125.842 70 987 300 4 342
1960199N17129 1960 37 WP MM POLLY 1960-07-25 18:00:00 TS 25.5758 125.770 980 tokyo main 387 377 OOO______OPO__ jtwc_wp WP061960 25.6000 125.800 70 1 25.6000 125.700 9 980 0 0 0 25.5000 125.800 4 77 979 25.6000 125.800 TC 70 25.5549 125.720 4 70 25.6000 125.800 70 988 300 4 340
1960199N17129 1960 37 WP MM POLLY 1960-07-25 21:00:00 TS 25.7743 125.672 main 381 372 PPP______PPP__ WP061960 25.7850 125.700 70 1 25.8000 125.585 9 980 0 0 25.7275 125.693 4 77 979 25.7850 125.700 TC 70 25.7631 125.655 4 70 25.7850 125.700 70 988 300 5 338
1960199N17129 1960 37 WP MM POLLY 1960-07-26 00:00:00 TS 26.0000 125.583 980 tokyo main 377 375 OOO______OOO__ jtwc_wp WP061960 26.0000 125.600 70 1 26.0000 125.500 9 980 0 0 0 26.0000 125.600 4 77 979 26.0000 125.600 TC 70 26.0000 125.600 4 70 26.0000 125.600 70 989 300 5 346
1960199N17129 1960 37 WP MM POLLY 1960-07-26 03:00:00 TS 26.2712 125.538 main 379 379 PPP______PPP__ WP061960 26.2850 125.542 70 1 26.2275 125.492 9 982 0 0 26.2775 125.557 4 77 979 26.2850 125.542 TC 70 26.2672 125.551 4 68 26.2850 125.542 69 989 300 6 353
1960199N17129 1960 37 WP MM POLLY 1960-07-26 06:00:00 TS 26.5771 125.501 985 tokyo main 393 393 OOO______OPO__ jtwc_wp WP061960 26.6000 125.500 70 1 26.5000 125.500 9 985 0 0 0 26.6000 125.500 4 77 979 26.6000 125.500 TC 70 26.5625 125.507 4 67 26.6000 125.500 68 990 300 6 352
1960199N17129 1960 37 WP MM POLLY 1960-07-26 09:00:00 TS 26.9057 125.443 main 400 393 PPP______PPP__ WP061960 26.9075 125.457 67 1 26.8425 125.465 9 985 0 0 26.9925 125.358 4 77 979 26.9075 125.457 TC 67 26.8765 125.460 4 66 26.9075 125.457 66 990 300 7 350
1960199N17129 1960 37 WP MM POLLY 1960-07-26 12:00:00 TS 27.2333 125.367 985 tokyo main 393 374 OOO______OOO__ jtwc_wp WP061960 27.2000 125.400 65 1 27.2000 125.400 9 985 0 0 0 27.4000 125.200 4 77 979 27.2000 125.400 TC 65 27.2000 125.400 4 65 27.2000 125.400 65 990 300 6 346
1960199N17129 1960 37 WP MM POLLY 1960-07-26 15:00:00 TS 27.5110 125.277 main 374 349 PPP______PPP__ WP061960 27.4350 125.307 65 1 27.5075 125.315 9 982 0 0 27.7725 125.085 4 77 979 27.4350 125.307 TC 65 27.4811 125.342 4 65 27.4350 125.307 65 990 300 6 343
1960199N17129 1960 37 WP MM POLLY 1960-07-26 18:00:00 TS 27.7958 125.178 980 tokyo main 349 326 OOO______OPO__ jtwc_wp WP061960 27.7000 125.200 65 1 27.8000 125.200 9 980 0 0 0 28.1000 125.000 4 77 979 27.7000 125.200 TC 65 27.7747 125.266 4 65 27.7000 125.200 65 991 300 6 345
1960199N17129 1960 37 WP MM POLLY 1960-07-26 21:00:00 TS 28.1214 125.091 main 326 302 PPP______PPP__ WP061960 28.0699 125.122 65 1 28.0850 125.065 9 977 0 0 28.3275 124.957 4 77 977 28.0699 125.122 TC 65 28.1060 125.157 4 65 28.0699 125.122 65 991 300 7 345
1960199N17129 1960 37 WP MM POLLY 1960-07-27 00:00:00 TS 28.5000 124.967 975 tokyo main 302 273 OOO______OOO__ jtwc_wp WP061960 28.5000 125.000 65 1 28.4000 124.900 9 975 0 0 0 28.6000 124.900 4 77 975 28.5000 125.000 TC 65 28.5000 125.000 4 65 28.5000 125.000 65 992 300 8 341
1960199N17129 1960 37 WP MM POLLY 1960-07-27 03:00:00 TS 28.9116 124.775 main 273 243 PPP______PPP__ WP061960 28.9125 124.780 65 1 28.7324 124.722 9 975 0 0 29.0549 124.795 4 77 975 28.9125 124.780 TC 65 28.9447 124.794 4 65 28.9125 124.780 65 992 300 10 337
1960199N17129 1960 37 WP MM POLLY 1960-07-27 06:00:00 TS 29.4096 124.523 975 tokyo main 243 231 OOO______OPO__ jtwc_wp WP061960 29.4000 124.500 65 1 29.2000 124.500 9 975 0 0 0 29.6000 124.600 4 77 975 29.4000 124.500 TC 65 29.4575 124.538 4 65 29.4000 124.500 65 992 300 12 337
1960199N17129 1960 37 WP MM POLLY 1960-07-27 09:00:00 TS 30.0097 124.242 main 222 192 PPP______PPP__ WP061960 29.9974 124.222 65 1 29.9051 124.215 9 975 0 0 30.1195 124.331 4 72 975 29.9974 124.222 TC 65 30.0415 124.237 4 65 29.9974 124.222 65 992 300 14 337
1960199N17129 1960 37 WP MM POLLY 1960-07-27 12:00:00 TS 30.7000 123.900 975 tokyo main 192 155 OOO______OOO__ jtwc_wp WP061960 30.7000 123.900 65 1 30.7000 123.900 9 975 0 0 0 30.7000 123.900 4 68 975 30.7000 123.900 TC 65 30.7000 123.900 4 65 30.7000 123.900 65 993 300 16 335
1960199N17129 1960 37 WP MM POLLY 1960-07-27 15:00:00 TS 31.4275 123.472 main 155 117 PPP______PPP__ WP061960 31.4775 123.515 65 1 31.3625 123.592 9 977 0 0 31.3413 123.179 4 68 975 31.4775 123.515 TC 65 31.4288 123.517 4 65 31.4775 123.515 65 993 300 17 334
1960199N17129 1960 37 WP MM POLLY 1960-07-27 18:00:00 TS 32.2210 123.034 980 tokyo main 117 117 OOO______OPO__ jtwc_wp WP061960 32.3000 123.100 65 1 32.1000 123.300 9 980 0 0 0 32.1000 122.500 4 68 975 32.3000 123.100 TC 65 32.2260 123.103 4 65 32.3000 123.100 65 993 300 18 338
1960199N17129 1960 37 WP MM POLLY 1960-07-27 21:00:00 TS 33.0798 122.670 main 144 143 PPP______PPP__ WP061960 33.0999 122.692 65 1 33.0773 123.057 9 982 0 0 33.0418 122.201 4 68 977 33.0999 122.692 TC 65 33.0601 122.686 4 65 33.0999 122.692 65 993 270 18 342
1960199N17129 1960 37 WP MM POLLY 1960-07-28 00:00:00 TS 33.9500 122.350 985 tokyo main 175 166 OOO______OOO__ jtwc_wp WP061960 33.9000 122.300 65 1 34.1000 122.800 9 985 0 0 0 34.0000 122.100 4 68 980 33.9000 122.300 TC 65 33.9000 122.300 4 65 33.9000 122.300 65 993 240 18 343
1960199N17129 1960 37 WP MM POLLY 1960-07-28 03:00:00 TS 34.7613 122.035 main 165 119 PPP______PPP__ WP061960 34.7000 121.920 65 1 34.9952 122.436 9 985 0 0 34.7647 122.078 4 68 980 34.7000 121.920 TC 65 34.7078 121.937 4 63 34.7000 121.920 65 993 240 17 343
1960199N17129 1960 37 WP MM POLLY 1960-07-28 06:00:00 TS 35.5525 121.753 985 tokyo main 113 45 OOO______OPO__ jtwc_wp WP061960 35.5000 121.600 65 1 35.8000 122.100 9 985 0 0 0 35.5000 122.000 4 68 980 35.5000 121.600 TC 65 35.5147 121.617 4 62 35.5000 121.600 65 994 240 16 345
1960199N17129 1960 37 WP MM POLLY 1960-07-28 09:00:00 TS 36.3490 121.502 main 45 0 PPP______PPP__ WP061960 36.3074 121.355 62 0 36.5072 121.940 9 985 0 0 36.3503 121.646 4 63 981 36.3074 121.355 TC 62 36.3143 121.363 4 61 36.3074 121.355 62 994 210 16 347
1960199N17129 1960 37 WP MM POLLY 1960-07-28 12:00:00 TS 37.1333 121.300 985 tokyo main 0 0 OOO______OOO__ jtwc_wp WP061960 37.1000 121.200 60 0 37.2000 121.800 9 985 0 0 0 37.2000 121.200 3 58 983 37.1000 121.200 TC 60 37.1000 121.200 2 60 37.1000 121.200 60 994 180 16 349
1960199N17129 1960 37 WP MM POLLY 1960-07-28 15:00:00 TS 37.9058 121.118 main 23 14 PPP______PPP__ WP061960 37.8574 121.098 55 0 38.0152 121.494 9 985 0 0 37.9801 120.776 3 53 986 37.8574 121.098 TC 55 37.8675 121.144 2 56 37.8574 121.098 55 994 180 15 352
1960199N17129 1960 37 WP MM POLLY 1960-07-28 18:00:00 TS 38.6573 121.020 986 tokyo main 8 8 OOO______OPO__ jtwc_wp WP061960 38.6000 121.100 50 0 38.8000 121.200 9 986 0 0 0 38.7000 120.500 3 48 990 38.6000 121.100 TC 50 38.6200 121.177 2 52 38.6000 121.100 50 995 180 14 358
1960199N17129 1960 37 WP MM POLLY 1960-07-28 21:00:00 TS 39.3340 121.067 main 20 17 PPP______PPP__ WP061960 39.3051 121.277 47 0 39.3698 121.018 9 989 0 0 39.3348 120.516 3 43 993 39.3051 121.277 TC 47 39.3626 121.272 2 48 39.3476 121.216 47 995 210 14 4
1960199N17129 1960 37 WP MM POLLY 1960-07-29 00:00:00 MX 40.0556 121.156 992 tokyo main 42 0 OOO______OOO__ jtwc_wp WP061960 40.1000 121.400 45 0 40.0000 121.000 6 992 0 0 0 40.0000 120.700 2 38 997 40.1000 121.400 TC 45 40.1000 121.400 2 45 40.1000 121.400 45 995 240 16 0
1960199N17129 1960 37 WP MM POLLY 1960-07-29 03:00:00 MX 40.9697 121.085 main 0 0 PPP______P____ WP061960 41.0902 121.205 40 0 40.8936 121.084 6 997 0 0 40.8048 120.849 2 28 999 41.0902 121.205 TC 40 2 20 359
1960199N17129 1960 37 WP MM POLLY 1960-07-29 06:00:00 MX 42.0250 121.100 1002 tokyo main 0 0 OOO______O____ jtwc_wp WP061960 42.2000 120.900 35 0 42.0000 121.500 6 1002 0 0 0 41.7000 121.100 0 19 1001 42.2000 120.900 TC 35 2 22 3
1960199N17129 1960 37 WP MM POLLY 1960-07-29 09:00:00 MX 43.1863 121.256 main 0 0 PPP______P____ WP061960 43.4324 120.627 35 0 43.2710 122.404 6 1003 0 0 42.6095 121.363 0 18 1002 43.4324 120.627 TC 35 2 23 13
1960199N17129 1960 37 WP MM POLLY 1960-07-29 12:00:00 MX 44.2714 121.814 1004 tokyo main 0 0 OOO______O____ jtwc_wp WP061960 44.5000 120.500 35 0 44.6000 123.600 6 1004 0 0 0 43.6000 122.000 9 17 1003 44.5000 120.500 TC 35 24 29
1960199N17129 1960 37 WP MM POLLY 1960-07-29 15:00:00 MX 45.2802 122.871 main 0 0 PPP______P____ WP061960 45.1353 120.660 27 -1 45.9551 124.729 6 1004 0 0 44.7501 123.225 9 17 1002 45.1353 120.660 TC 27 28 45
1960199N17129 1960 37 WP MM POLLY 1960-07-29 18:00:00 MX 46.2200 124.600 1004 tokyo main 0 0 OOO______O____ jtwc_wp WP061960 45.5000 121.000 20 -1 47.0000 126.000 6 1004 0 0 0 45.8000 125.000 9 17 1001 45.5000 121.000 TC 20 35 62
1960199N17129 1960 37 WP MM POLLY 1960-07-29 21:00:00 ET 46.9416 127.297 main 0 0 _PP___________ WP061960 -1 47.3730 127.379 6 1003 0 0 46.5103 127.215 9 17 1000 TC 33 72
1960199N17129 1960 37 WP MM POLLY 1960-07-30 00:00:00 ET 47.2500 129.250 1002 tokyo main 0 0 _OO___________ -1 47.5000 129.000 6 1002 0 0 0 47.0000 129.500 9 17 1000 28 74
1960199N17129 1960 37 WP MM POLLY 1960-07-30 03:00:00 ET 47.7288 131.296 main 0 0 _PP___________ -1 47.9489 131.193 6 1000 0 0 47.5087 131.399 9 17 999 27 74
1960199N17129 1960 37 WP MM POLLY 1960-07-30 06:00:00 ET 48.0000 133.100 998 tokyo main 0 0 _OO___________ -1 48.2000 133.200 6 998 0 0 0 47.8000 133.000 9 17 998 19 85
1960199N17129 1960 37 WP MM POLLY 1960-07-30 09:00:00 ET 47.8911 134.161 main 0 0 _PP___________ -1 48.0015 133.996 6 998 0 0 47.7806 134.327 9 17 998 15 110
1960199N17129 1960 37 WP MM POLLY 1960-07-30 12:00:00 ET 47.5000 135.150 998 tokyo main 0 0 _OO___________ -1 47.5000 134.800 6 998 0 0 0 47.5000 135.500 9 17 998 21 121
1960199N17129 1960 37 WP MM POLLY 1960-07-30 15:00:00 ET 46.8067 136.865 main 0 0 _PP___________ -1 46.6360 136.935 6 997 0 0 46.9773 136.794 9 18 996 26 119
1960199N17129 1960 37 WP MM POLLY 1960-07-30 18:00:00 ET 46.2500 138.500 996 tokyo main 25 25 _OO___________ -1 46.0000 139.000 6 996 0 0 0 46.5000 138.000 9 19 995 18 103
1960199N17129 1960 37 WP MM POLLY 1960-07-30 21:00:00 ET 46.3823 139.449 main 83 83 _PP___________ -1 46.3790 139.864 6 995 0 0 46.3857 139.035 9 19 994 13 68
1960199N17129 1960 37 WP MM POLLY 1960-07-31 00:00:00 ET 46.7500 140.250 994 tokyo main 112 50 _OO___________ -1 47.0000 140.500 6 994 0 0 0 46.5000 140.000 9 19 994 14 69
1960199N17129 1960 37 WP MM POLLY 1960-07-31 03:00:00 ET 46.8908 141.373 main 43 0 _PP___________ -1 47.0710 141.784 6 995 0 0 46.7106 140.962 9 19 994 16 81
1960199N17129 1960 37 WP MM POLLY 1960-07-31 06:00:00 ET 47.0000 142.500 996 tokyo main 0 0 _OO___________ -1 47.0000 143.000 6 996 0 0 0 47.0000 142.000 9 19 994 14 81
1960199N17129 1960 37 WP MM POLLY 1960-07-31 09:00:00 ET 47.1135 143.369 main 25 25 _PP___________ -1 46.9772 143.524 6 996 0 0 47.2498 143.213 9 19 995 13 76
1960199N17129 1960 37 WP MM POLLY 1960-07-31 12:00:00 ET 47.3000 144.300 996 tokyo main 89 89 _OO___________ -1 47.1000 144.100 6 996 0 0 0 47.5000 144.500 9 19 996 16 71
1960199N17129 1960 37 WP MM POLLY 1960-07-31 15:00:00 ET 47.6344 145.551 main 129 120 _PP___________ -1 47.5219 145.402 6 996 0 0 47.7468 145.700 9 996 19 69
1960199N17129 1960 37 WP MM POLLY 1960-07-31 18:00:00 ET 48.0000 147.000 996 tokyo main 181 181 _OO___________ -1 48.0000 147.000 6 996 0 0 0 48.0000 147.000 9 996 21 72
1960199N17129 1960 37 WP MM POLLY 1960-07-31 21:00:00 ET 48.2989 148.604 main 272 259 _PP___________ -1 48.3202 148.642 6 997 0 0 48.2562 148.526 9 997 21 76
1960199N17129 1960 37 WP MM POLLY 1960-08-01 00:00:00 ET 48.5000 150.040 998 tokyo main 266 266 _OO___________ -1 48.5000 150.000 6 998 0 0 0 48.5000 150.200 9 998 14 80
1960199N17129 1960 37 WP MM POLLY 1960-08-01 03:00:00 ET 48.5339 150.653 main 267 267 _P____________ -1 48.5339 150.653 6 998 0 0 9 6 90
1960199N17129 1960 37 WP MM POLLY 1960-08-01 06:00:00 ET 48.5000 151.000 998 tokyo main 270 270 _O____________ -1 48.5000 151.000 6 998 0 0 0 5 94
1960199N17129 1960 37 WP MM POLLY 1960-08-01 09:00:00 ET 48.4975 151.388 main 276 276 _P____________ -1 48.4975 151.388 6 998 0 0 7 90
1960199N17129 1960 37 WP MM POLLY 1960-08-01 12:00:00 ET 48.5000 152.000 998 tokyo main 291 238 _O____________ -1 48.5000 152.000 6 998 0 0 0 11 89
1960199N17129 1960 37 WP MM POLLY 1960-08-01 15:00:00 ET 48.5157 153.114 main 233 181 _P____________ -1 48.5157 153.114 6 998 0 0 16 90
1960199N17129 1960 37 WP MM POLLY 1960-08-01 18:00:00 ET 48.5000 154.500 998 tokyo main 178 170 _O____________ -1 48.5000 154.500 6 998 0 0 0 18 95
1960199N17129 1960 37 WP MM POLLY 1960-08-01 21:00:00 ET 48.3440 155.817 main 190 190 _P____________ -1 48.3440 155.817 6 999 0 0 19 96
1960199N17129 1960 37 WP MM POLLY 1960-08-02 00:00:00 ET 48.3000 157.300 1000 tokyo main 233 233 _O____________ -1 48.3000 157.300 6 1000 0 0 0 22 84
1960199N17129 1960 37 WP MM POLLY 1960-08-02 03:00:00 ET 48.5741 159.057 main 290 290 _P____________ -1 48.5741 159.057 6 1002 0 0 25 74
1960199N17129 1960 37 WP MM POLLY 1960-08-02 06:00:00 ET 49.0000 161.000 1004 tokyo main 362 362 _O____________ -1 49.0000 161.000 6 1004 0 0 0 27 72
1960199N17129 1960 37 WP MM POLLY 1960-08-02 09:00:00 ET 49.4184 162.989 main 433 433 _P____________ -1 49.4184 162.989 6 1004 0 0 27 73
1960199N17129 1960 37 WP MM POLLY 1960-08-02 12:00:00 ET 49.8000 165.000 1004 tokyo main 497 _O____________ -1 49.8000 165.000 6 1004 0 0 0 27 74

Digital Typhoon Data and Search

About IBTrACS Database

This database is a web-friendly format of International Best Track Archive for Climate Stewardship (IBTrACS), a global best track data archive curated by NOAA dating back to 1842.

Updated: 2021-12-03